sensor_id;sensor_type;location;lat;lon;timestamp;P1;durP1;ratioP1;P2;durP2;ratioP2
60700;SDS011;46541;49.894;10.886;2023-04-29T00:01:04;14.07;;;10.02;;
60700;SDS011;46541;49.894;10.886;2023-04-29T00:03:31;15.88;;;9.95;;
60700;SDS011;46541;49.894;10.886;2023-04-29T00:05:58;12.68;;;8.55;;
60700;SDS011;46541;49.894;10.886;2023-04-29T00:08:26;13.98;;;9.90;;
60700;SDS011;46541;49.894;10.886;2023-04-29T00:10:53;16.92;;;8.85;;
60700;SDS011;46541;49.894;10.886;2023-04-29T00:13:20;15.88;;;8.70;;
60700;SDS011;46541;49.894;10.886;2023-04-29T00:15:47;13.30;;;8.52;;
60700;SDS011;46541;49.894;10.886;2023-04-29T00:18:14;11.55;;;8.88;;
60700;SDS011;46541;49.894;10.886;2023-04-29T00:20:41;9.18;;;7.55;;
60700;SDS011;46541;49.894;10.886;2023-04-29T00:23:08;10.70;;;8.23;;
60700;SDS011;46541;49.894;10.886;2023-04-29T00:25:35;10.90;;;8.52;;
60700;SDS011;46541;49.894;10.886;2023-04-29T00:28:04;10.20;;;8.20;;
60700;SDS011;46541;49.894;10.886;2023-04-29T00:30:31;10.57;;;7.97;;
60700;SDS011;46541;49.894;10.886;2023-04-29T00:32:58;10.50;;;8.45;;
60700;SDS011;46541;49.894;10.886;2023-04-29T00:35:25;11.13;;;8.35;;
60700;SDS011;46541;49.894;10.886;2023-04-29T00:37:52;10.52;;;7.82;;
60700;SDS011;46541;49.894;10.886;2023-04-29T00:40:19;13.85;;;8.75;;
60700;SDS011;46541;49.894;10.886;2023-04-29T00:42:46;9.18;;;7.65;;
60700;SDS011;46541;49.894;10.886;2023-04-29T00:45:13;8.73;;;7.53;;
60700;SDS011;46541;49.894;10.886;2023-04-29T00:47:39;8.60;;;6.70;;
60700;SDS011;46541;49.894;10.886;2023-04-29T00:50:07;6.45;;;5.68;;
60700;SDS011;46541;49.894;10.886;2023-04-29T00:52:34;7.10;;;5.70;;
60700;SDS011;46541;49.894;10.886;2023-04-29T00:55:03;6.10;;;5.03;;
60700;SDS011;46541;49.894;10.886;2023-04-29T00:57:32;5.72;;;4.32;;
60700;SDS011;46541;49.894;10.886;2023-04-29T00:59:59;6.30;;;4.78;;
60700;SDS011;46541;49.894;10.886;2023-04-29T01:02:26;8.52;;;4.40;;
60700;SDS011;46541;49.894;10.886;2023-04-29T01:04:53;5.40;;;4.50;;
60700;SDS011;46541;49.894;10.886;2023-04-29T01:10:28;5.30;;;3.97;;
60700;SDS011;46541;49.894;10.886;2023-04-29T01:15:37;4.95;;;3.80;;
60700;SDS011;46541;49.894;10.886;2023-04-29T01:18:25;5.10;;;4.25;;
60700;SDS011;46541;49.894;10.886;2023-04-29T01:20:58;4.28;;;3.88;;
60700;SDS011;46541;49.894;10.886;2023-04-29T01:23:28;5.25;;;4.20;;
60700;SDS011;46541;49.894;10.886;2023-04-29T01:25:55;5.15;;;4.45;;
60700;SDS011;46541;49.894;10.886;2023-04-29T01:31:24;5.43;;;4.38;;
60700;SDS011;46541;49.894;10.886;2023-04-29T01:37:06;5.22;;;4.70;;
60700;SDS011;46541;49.894;10.886;2023-04-29T01:42:26;7.60;;;5.78;;
60700;SDS011;46541;49.894;10.886;2023-04-29T01:45:02;8.73;;;5.93;;
60700;SDS011;46541;49.894;10.886;2023-04-29T01:47:32;5.63;;;4.88;;
60700;SDS011;46541;49.894;10.886;2023-04-29T01:49:59;8.45;;;5.40;;
60700;SDS011;46541;49.894;10.886;2023-04-29T01:52:27;7.25;;;6.10;;
60700;SDS011;46541;49.894;10.886;2023-04-29T01:54:54;8.27;;;6.10;;
60700;SDS011;46541;49.894;10.886;2023-04-29T01:57:21;8.82;;;6.47;;
60700;SDS011;46541;49.894;10.886;2023-04-29T01:59:48;9.57;;;6.88;;
60700;SDS011;46541;49.894;10.886;2023-04-29T02:02:15;15.75;;;6.82;;
60700;SDS011;46541;49.894;10.886;2023-04-29T02:04:46;37.47;;;7.68;;
60700;SDS011;46541;49.894;10.886;2023-04-29T02:07:13;50.33;;;7.38;;
60700;SDS011;46541;49.894;10.886;2023-04-29T02:09:40;31.80;;;6.82;;
60700;SDS011;46541;49.894;10.886;2023-04-29T02:12:07;39.00;;;7.28;;
60700;SDS011;46541;49.894;10.886;2023-04-29T02:14:34;41.22;;;7.45;;
60700;SDS011;46541;49.894;10.886;2023-04-29T02:17:03;33.55;;;7.55;;
60700;SDS011;46541;49.894;10.886;2023-04-29T02:19:29;41.15;;;7.90;;
60700;SDS011;46541;49.894;10.886;2023-04-29T02:21:56;25.20;;;7.55;;
60700;SDS011;46541;49.894;10.886;2023-04-29T02:24:23;45.55;;;8.40;;
60700;SDS011;46541;49.894;10.886;2023-04-29T02:26:50;23.55;;;7.20;;
60700;SDS011;46541;49.894;10.886;2023-04-29T02:29:16;20.85;;;7.18;;
60700;SDS011;46541;49.894;10.886;2023-04-29T02:31:43;12.23;;;6.68;;
60700;SDS011;46541;49.894;10.886;2023-04-29T02:34:10;12.70;;;6.72;;
60700;SDS011;46541;49.894;10.886;2023-04-29T02:36:36;10.88;;;7.18;;
60700;SDS011;46541;49.894;10.886;2023-04-29T02:39:03;8.98;;;7.03;;
60700;SDS011;46541;49.894;10.886;2023-04-29T02:41:30;8.40;;;6.93;;
60700;SDS011;46541;49.894;10.886;2023-04-29T02:43:57;12.43;;;7.80;;
60700;SDS011;46541;49.894;10.886;2023-04-29T02:46:23;10.73;;;7.47;;
60700;SDS011;46541;49.894;10.886;2023-04-29T02:48:50;9.30;;;6.97;;
60700;SDS011;46541;49.894;10.886;2023-04-29T02:51:17;9.18;;;6.65;;
60700;SDS011;46541;49.894;10.886;2023-04-29T02:53:44;9.52;;;6.82;;
60700;SDS011;46541;49.894;10.886;2023-04-29T02:56:10;12.25;;;6.80;;
60700;SDS011;46541;49.894;10.886;2023-04-29T02:58:37;8.95;;;6.35;;
60700;SDS011;46541;49.894;10.886;2023-04-29T03:01:04;8.85;;;6.60;;
60700;SDS011;46541;49.894;10.886;2023-04-29T03:03:31;9.68;;;6.85;;
60700;SDS011;46541;49.894;10.886;2023-04-29T03:05:57;10.80;;;6.43;;
60700;SDS011;46541;49.894;10.886;2023-04-29T03:08:24;8.27;;;6.82;;
60700;SDS011;46541;49.894;10.886;2023-04-29T03:10:51;9.02;;;6.90;;
60700;SDS011;46541;49.894;10.886;2023-04-29T03:13:17;12.05;;;8.00;;
60700;SDS011;46541;49.894;10.886;2023-04-29T03:15:45;18.65;;;8.18;;
60700;SDS011;46541;49.894;10.886;2023-04-29T03:18:11;21.67;;;8.02;;
60700;SDS011;46541;49.894;10.886;2023-04-29T03:20:38;19.73;;;7.82;;
60700;SDS011;46541;49.894;10.886;2023-04-29T03:23:05;39.05;;;7.38;;
60700;SDS011;46541;49.894;10.886;2023-04-29T03:25:32;26.80;;;6.88;;
60700;SDS011;46541;49.894;10.886;2023-04-29T03:27:58;16.70;;;7.22;;
60700;SDS011;46541;49.894;10.886;2023-04-29T03:30:25;16.52;;;6.47;;
60700;SDS011;46541;49.894;10.886;2023-04-29T03:32:52;12.05;;;6.00;;
60700;SDS011;46541;49.894;10.886;2023-04-29T03:35:19;27.85;;;6.68;;
60700;SDS011;46541;49.894;10.886;2023-04-29T03:37:45;17.48;;;6.00;;
60700;SDS011;46541;49.894;10.886;2023-04-29T03:40:12;13.38;;;6.57;;
60700;SDS011;46541;49.894;10.886;2023-04-29T03:42:39;19.00;;;7.38;;
60700;SDS011;46541;49.894;10.886;2023-04-29T03:45:06;9.18;;;7.30;;
60700;SDS011;46541;49.894;10.886;2023-04-29T03:47:33;8.45;;;6.85;;
60700;SDS011;46541;49.894;10.886;2023-04-29T03:50:01;9.02;;;7.28;;
60700;SDS011;46541;49.894;10.886;2023-04-29T03:52:27;9.27;;;7.50;;
60700;SDS011;46541;49.894;10.886;2023-04-29T03:54:54;9.93;;;7.65;;
60700;SDS011;46541;49.894;10.886;2023-04-29T03:57:21;10.93;;;7.82;;
60700;SDS011;46541;49.894;10.886;2023-04-29T03:59:47;13.73;;;9.57;;
60700;SDS011;46541;49.894;10.886;2023-04-29T04:02:16;14.00;;;8.38;;
60700;SDS011;46541;49.894;10.886;2023-04-29T04:04:43;11.63;;;8.38;;
60700;SDS011;46541;49.894;10.886;2023-04-29T04:07:10;10.77;;;7.22;;
60700;SDS011;46541;49.894;10.886;2023-04-29T04:09:37;9.55;;;6.65;;
60700;SDS011;46541;49.894;10.886;2023-04-29T04:12:03;8.65;;;6.22;;
60700;SDS011;46541;49.894;10.886;2023-04-29T04:14:31;13.20;;;7.20;;
60700;SDS011;46541;49.894;10.886;2023-04-29T04:16:58;10.35;;;7.80;;
60700;SDS011;46541;49.894;10.886;2023-04-29T04:19:24;8.38;;;7.00;;
60700;SDS011;46541;49.894;10.886;2023-04-29T04:21:52;8.25;;;6.65;;
60700;SDS011;46541;49.894;10.886;2023-04-29T04:24:19;7.93;;;6.63;;
60700;SDS011;46541;49.894;10.886;2023-04-29T04:26:45;6.57;;;5.60;;
60700;SDS011;46541;49.894;10.886;2023-04-29T04:29:12;7.15;;;5.53;;
60700;SDS011;46541;49.894;10.886;2023-04-29T04:31:39;6.03;;;5.28;;
60700;SDS011;46541;49.894;10.886;2023-04-29T04:34:06;5.00;;;4.50;;
60700;SDS011;46541;49.894;10.886;2023-04-29T04:36:32;6.60;;;4.25;;
60700;SDS011;46541;49.894;10.886;2023-04-29T04:38:59;5.28;;;4.55;;
60700;SDS011;46541;49.894;10.886;2023-04-29T04:41:26;6.90;;;4.50;;
60700;SDS011;46541;49.894;10.886;2023-04-29T04:43:52;3.88;;;3.45;;
60700;SDS011;46541;49.894;10.886;2023-04-29T04:46:19;5.30;;;4.50;;
60700;SDS011;46541;49.894;10.886;2023-04-29T04:48:46;4.95;;;4.45;;
60700;SDS011;46541;49.894;10.886;2023-04-29T04:51:13;5.30;;;4.05;;
60700;SDS011;46541;49.894;10.886;2023-04-29T04:53:39;5.85;;;4.70;;
60700;SDS011;46541;49.894;10.886;2023-04-29T04:56:06;5.45;;;4.20;;
60700;SDS011;46541;49.894;10.886;2023-04-29T04:58:33;4.30;;;3.90;;
60700;SDS011;46541;49.894;10.886;2023-04-29T05:01:00;4.38;;;3.97;;
60700;SDS011;46541;49.894;10.886;2023-04-29T05:03:27;8.88;;;4.10;;
60700;SDS011;46541;49.894;10.886;2023-04-29T05:05:58;5.13;;;4.18;;
60700;SDS011;46541;49.894;10.886;2023-04-29T05:08:25;4.32;;;3.92;;
60700;SDS011;46541;49.894;10.886;2023-04-29T05:10:52;4.85;;;4.35;;
60700;SDS011;46541;49.894;10.886;2023-04-29T05:13:19;4.85;;;4.35;;
60700;SDS011;46541;49.894;10.886;2023-04-29T05:15:46;6.97;;;4.45;;
60700;SDS011;46541;49.894;10.886;2023-04-29T05:18:13;6.43;;;4.28;;
60700;SDS011;46541;49.894;10.886;2023-04-29T05:20:40;5.43;;;4.57;;
60700;SDS011;46541;49.894;10.886;2023-04-29T05:23:06;9.32;;;4.80;;
60700;SDS011;46541;49.894;10.886;2023-04-29T05:25:34;6.32;;;4.85;;
60700;SDS011;46541;49.894;10.886;2023-04-29T05:28:01;5.20;;;4.70;;
60700;SDS011;46541;49.894;10.886;2023-04-29T05:30:28;5.82;;;4.75;;
60700;SDS011;46541;49.894;10.886;2023-04-29T05:32:55;5.97;;;4.50;;
60700;SDS011;46541;49.894;10.886;2023-04-29T05:35:22;5.32;;;4.65;;
60700;SDS011;46541;49.894;10.886;2023-04-29T05:37:48;5.22;;;4.63;;
60700;SDS011;46541;49.894;10.886;2023-04-29T05:40:15;4.82;;;4.18;;
60700;SDS011;46541;49.894;10.886;2023-04-29T05:42:42;6.38;;;5.07;;
60700;SDS011;46541;49.894;10.886;2023-04-29T05:45:09;8.63;;;5.30;;
60700;SDS011;46541;49.894;10.886;2023-04-29T05:47:35;6.20;;;5.13;;
60700;SDS011;46541;49.894;10.886;2023-04-29T05:50:02;6.28;;;5.15;;
60700;SDS011;46541;49.894;10.886;2023-04-29T05:52:29;7.45;;;5.93;;
60700;SDS011;46541;49.894;10.886;2023-04-29T05:54:56;8.18;;;5.93;;
60700;SDS011;46541;49.894;10.886;2023-04-29T05:57:23;6.63;;;5.47;;
60700;SDS011;46541;49.894;10.886;2023-04-29T05:59:49;6.40;;;5.50;;
60700;SDS011;46541;49.894;10.886;2023-04-29T06:02:16;8.98;;;5.68;;
60700;SDS011;46541;49.894;10.886;2023-04-29T06:04:43;6.22;;;5.20;;
60700;SDS011;46541;49.894;10.886;2023-04-29T06:07:13;6.30;;;5.53;;
60700;SDS011;46541;49.894;10.886;2023-04-29T06:09:39;6.55;;;5.43;;
60700;SDS011;46541;49.894;10.886;2023-04-29T06:12:07;7.10;;;5.03;;
60700;SDS011;46541;49.894;10.886;2023-04-29T06:14:34;7.85;;;5.20;;
60700;SDS011;46541;49.894;10.886;2023-04-29T06:17:01;7.25;;;5.07;;
60700;SDS011;46541;49.894;10.886;2023-04-29T06:19:28;7.13;;;4.93;;
60700;SDS011;46541;49.894;10.886;2023-04-29T06:21:57;5.63;;;5.07;;
60700;SDS011;46541;49.894;10.886;2023-04-29T06:24:24;5.68;;;4.68;;
60700;SDS011;46541;49.894;10.886;2023-04-29T06:26:51;5.82;;;5.22;;
60700;SDS011;46541;49.894;10.886;2023-04-29T06:29:17;7.07;;;5.65;;
60700;SDS011;46541;49.894;10.886;2023-04-29T06:31:44;6.78;;;5.78;;
60700;SDS011;46541;49.894;10.886;2023-04-29T06:34:11;7.28;;;5.75;;
60700;SDS011;46541;49.894;10.886;2023-04-29T06:36:38;7.75;;;5.68;;
60700;SDS011;46541;49.894;10.886;2023-04-29T06:39:05;7.45;;;5.75;;
60700;SDS011;46541;49.894;10.886;2023-04-29T06:41:31;7.85;;;5.38;;
60700;SDS011;46541;49.894;10.886;2023-04-29T06:43:59;5.32;;;4.82;;
60700;SDS011;46541;49.894;10.886;2023-04-29T06:46:26;5.60;;;5.05;;
60700;SDS011;46541;49.894;10.886;2023-04-29T06:48:54;7.22;;;5.78;;
60700;SDS011;46541;49.894;10.886;2023-04-29T06:51:21;7.63;;;6.18;;
60700;SDS011;46541;49.894;10.886;2023-04-29T06:53:47;8.70;;;6.60;;
60700;SDS011;46541;49.894;10.886;2023-04-29T06:56:14;8.23;;;5.93;;
60700;SDS011;46541;49.894;10.886;2023-04-29T06:58:42;8.30;;;6.72;;
60700;SDS011;46541;49.894;10.886;2023-04-29T07:01:09;8.77;;;6.95;;
60700;SDS011;46541;49.894;10.886;2023-04-29T07:03:36;7.47;;;6.35;;
60700;SDS011;46541;49.894;10.886;2023-04-29T07:06:03;8.40;;;5.78;;
60700;SDS011;46541;49.894;10.886;2023-04-29T07:08:31;8.52;;;5.90;;
60700;SDS011;46541;49.894;10.886;2023-04-29T07:10:58;8.05;;;6.75;;
60700;SDS011;46541;49.894;10.886;2023-04-29T07:13:25;9.30;;;6.07;;
60700;SDS011;46541;49.894;10.886;2023-04-29T07:15:51;8.50;;;6.53;;
60700;SDS011;46541;49.894;10.886;2023-04-29T07:18:18;9.02;;;6.80;;
60700;SDS011;46541;49.894;10.886;2023-04-29T07:20:45;9.18;;;6.50;;
60700;SDS011;46541;49.894;10.886;2023-04-29T07:23:13;11.40;;;7.70;;
60700;SDS011;46541;49.894;10.886;2023-04-29T07:25:40;9.88;;;8.15;;
60700;SDS011;46541;49.894;10.886;2023-04-29T07:28:06;10.52;;;7.57;;
60700;SDS011;46541;49.894;10.886;2023-04-29T07:30:34;9.07;;;7.20;;
60700;SDS011;46541;49.894;10.886;2023-04-29T07:33:01;12.60;;;8.32;;
60700;SDS011;46541;49.894;10.886;2023-04-29T07:35:29;13.60;;;8.05;;
60700;SDS011;46541;49.894;10.886;2023-04-29T07:37:56;10.70;;;8.30;;
60700;SDS011;46541;49.894;10.886;2023-04-29T07:40:23;9.65;;;7.47;;
60700;SDS011;46541;49.894;10.886;2023-04-29T07:42:50;9.85;;;8.15;;
60700;SDS011;46541;49.894;10.886;2023-04-29T07:45:17;10.25;;;7.18;;
60700;SDS011;46541;49.894;10.886;2023-04-29T07:47:43;16.98;;;10.02;;
60700;SDS011;46541;49.894;10.886;2023-04-29T07:50:11;14.07;;;7.47;;
60700;SDS011;46541;49.894;10.886;2023-04-29T07:52:38;9.40;;;7.25;;
60700;SDS011;46541;49.894;10.886;2023-04-29T07:55:04;11.23;;;7.50;;
60700;SDS011;46541;49.894;10.886;2023-04-29T07:57:34;9.45;;;7.07;;
60700;SDS011;46541;49.894;10.886;2023-04-29T08:00:01;8.70;;;6.35;;
60700;SDS011;46541;49.894;10.886;2023-04-29T08:02:28;9.30;;;6.95;;
60700;SDS011;46541;49.894;10.886;2023-04-29T08:04:55;11.73;;;7.50;;
60700;SDS011;46541;49.894;10.886;2023-04-29T08:07:23;8.40;;;6.13;;
60700;SDS011;46541;49.894;10.886;2023-04-29T08:09:50;9.40;;;7.28;;
60700;SDS011;46541;49.894;10.886;2023-04-29T08:12:16;9.13;;;7.63;;
60700;SDS011;46541;49.894;10.886;2023-04-29T08:14:43;10.80;;;6.70;;
60700;SDS011;46541;49.894;10.886;2023-04-29T08:17:10;7.40;;;6.32;;
60700;SDS011;46541;49.894;10.886;2023-04-29T08:19:36;10.63;;;6.95;;
60700;SDS011;46541;49.894;10.886;2023-04-29T08:22:03;7.95;;;6.32;;
60700;SDS011;46541;49.894;10.886;2023-04-29T08:24:30;7.40;;;6.50;;
60700;SDS011;46541;49.894;10.886;2023-04-29T08:26:58;7.85;;;6.68;;
60700;SDS011;46541;49.894;10.886;2023-04-29T08:29:25;6.38;;;5.28;;
60700;SDS011;46541;49.894;10.886;2023-04-29T08:31:52;9.50;;;5.03;;
60700;SDS011;46541;49.894;10.886;2023-04-29T08:34:19;5.78;;;5.03;;
60700;SDS011;46541;49.894;10.886;2023-04-29T08:36:46;8.07;;;5.93;;
60700;SDS011;46541;49.894;10.886;2023-04-29T08:39:13;6.38;;;5.57;;
60700;SDS011;46541;49.894;10.886;2023-04-29T08:41:39;5.45;;;4.45;;
60700;SDS011;46541;49.894;10.886;2023-04-29T08:44:09;6.82;;;4.90;;
60700;SDS011;46541;49.894;10.886;2023-04-29T08:46:36;5.70;;;3.30;;
60700;SDS011;46541;49.894;10.886;2023-04-29T08:49:03;4.38;;;3.65;;
60700;SDS011;46541;49.894;10.886;2023-04-29T08:51:30;6.05;;;5.10;;
60700;SDS011;46541;49.894;10.886;2023-04-29T08:53:59;5.30;;;4.80;;
60700;SDS011;46541;49.894;10.886;2023-04-29T08:56:26;5.40;;;4.68;;
60700;SDS011;46541;49.894;10.886;2023-04-29T08:58:56;6.72;;;4.20;;
60700;SDS011;46541;49.894;10.886;2023-04-29T09:01:27;5.10;;;3.97;;
60700;SDS011;46541;49.894;10.886;2023-04-29T09:04:08;5.25;;;4.00;;
60700;SDS011;46541;49.894;10.886;2023-04-29T09:06:43;4.38;;;3.97;;
60700;SDS011;46541;49.894;10.886;2023-04-29T09:09:10;6.18;;;4.55;;
60700;SDS011;46541;49.894;10.886;2023-04-29T09:11:39;5.60;;;4.63;;
60700;SDS011;46541;49.894;10.886;2023-04-29T09:14:06;6.72;;;4.53;;
60700;SDS011;46541;49.894;10.886;2023-04-29T09:16:34;5.88;;;4.40;;
60700;SDS011;46541;49.894;10.886;2023-04-29T09:19:03;7.30;;;5.07;;
60700;SDS011;46541;49.894;10.886;2023-04-29T09:21:30;6.90;;;4.78;;
60700;SDS011;46541;49.894;10.886;2023-04-29T09:24:01;8.85;;;5.00;;
60700;SDS011;46541;49.894;10.886;2023-04-29T09:26:34;5.85;;;5.13;;
60700;SDS011;46541;49.894;10.886;2023-04-29T09:29:13;5.82;;;4.90;;
60700;SDS011;46541;49.894;10.886;2023-04-29T09:31:41;7.13;;;4.50;;
60700;SDS011;46541;49.894;10.886;2023-04-29T09:34:09;5.65;;;4.47;;
60700;SDS011;46541;49.894;10.886;2023-04-29T09:36:44;6.78;;;5.03;;
60700;SDS011;46541;49.894;10.886;2023-04-29T09:39:22;4.97;;;4.22;;
60700;SDS011;46541;49.894;10.886;2023-04-29T09:44:19;5.85;;;4.18;;
60700;SDS011;46541;49.894;10.886;2023-04-29T09:46:57;6.75;;;4.47;;
60700;SDS011;46541;49.894;10.886;2023-04-29T09:49:28;6.45;;;3.95;;
60700;SDS011;46541;49.894;10.886;2023-04-29T09:52:01;5.53;;;3.95;;
60700;SDS011;46541;49.894;10.886;2023-04-29T09:54:30;7.28;;;5.03;;
60700;SDS011;46541;49.894;10.886;2023-04-29T09:56:58;5.68;;;4.32;;
60700;SDS011;46541;49.894;10.886;2023-04-29T09:59:27;8.43;;;4.40;;
60700;SDS011;46541;49.894;10.886;2023-04-29T10:01:54;7.53;;;4.28;;
60700;SDS011;46541;49.894;10.886;2023-04-29T10:04:24;5.82;;;4.22;;
60700;SDS011;46541;49.894;10.886;2023-04-29T10:06:52;4.78;;;3.50;;
60700;SDS011;46541;49.894;10.886;2023-04-29T10:09:20;7.35;;;4.57;;
60700;SDS011;46541;49.894;10.886;2023-04-29T10:11:49;4.88;;;4.20;;
60700;SDS011;46541;49.894;10.886;2023-04-29T10:14:18;5.28;;;3.97;;
60700;SDS011;46541;49.894;10.886;2023-04-29T10:16:53;6.47;;;4.43;;
60700;SDS011;46541;49.894;10.886;2023-04-29T10:19:42;9.40;;;4.63;;
60700;SDS011;46541;49.894;10.886;2023-04-29T10:22:16;6.35;;;5.03;;
60700;SDS011;46541;49.894;10.886;2023-04-29T10:24:47;7.30;;;4.53;;
60700;SDS011;46541;49.894;10.886;2023-04-29T10:27:14;6.20;;;4.30;;
60700;SDS011;46541;49.894;10.886;2023-04-29T10:29:45;5.85;;;3.85;;
60700;SDS011;46541;49.894;10.886;2023-04-29T10:32:13;7.35;;;4.20;;
60700;SDS011;46541;49.894;10.886;2023-04-29T10:34:41;4.82;;;3.47;;
60700;SDS011;46541;49.894;10.886;2023-04-29T10:37:08;3.83;;;2.85;;
60700;SDS011;46541;49.894;10.886;2023-04-29T10:39:46;4.57;;;3.08;;
60700;SDS011;46541;49.894;10.886;2023-04-29T10:42:36;4.55;;;3.75;;
60700;SDS011;46541;49.894;10.886;2023-04-29T10:45:22;4.93;;;3.38;;
60700;SDS011;46541;49.894;10.886;2023-04-29T10:48:24;5.07;;;3.97;;
60700;SDS011;46541;49.894;10.886;2023-04-29T10:53:13;4.72;;;3.17;;
60700;SDS011;46541;49.894;10.886;2023-04-29T10:55:41;4.32;;;3.20;;
60700;SDS011;46541;49.894;10.886;2023-04-29T11:01:01;3.90;;;3.22;;
60700;SDS011;46541;49.894;10.886;2023-04-29T11:09:03;5.78;;;3.65;;
60700;SDS011;46541;49.894;10.886;2023-04-29T11:12:07;5.00;;;3.90;;
60700;SDS011;46541;49.894;10.886;2023-04-29T11:14:35;5.68;;;3.83;;
60700;SDS011;46541;49.894;10.886;2023-04-29T11:17:07;5.15;;;3.83;;
60700;SDS011;46541;49.894;10.886;2023-04-29T11:19:38;5.85;;;3.47;;
60700;SDS011;46541;49.894;10.886;2023-04-29T11:24:47;4.75;;;3.78;;
60700;SDS011;46541;49.894;10.886;2023-04-29T11:27:14;5.70;;;3.40;;
60700;SDS011;46541;49.894;10.886;2023-04-29T11:29:41;4.53;;;3.30;;
60700;SDS011;46541;49.894;10.886;2023-04-29T11:32:10;5.97;;;2.75;;
60700;SDS011;46541;49.894;10.886;2023-04-29T11:34:37;3.85;;;2.67;;
60700;SDS011;46541;49.894;10.886;2023-04-29T11:37:04;3.20;;;2.42;;
60700;SDS011;46541;49.894;10.886;2023-04-29T11:39:34;3.10;;;2.38;;
60700;SDS011;46541;49.894;10.886;2023-04-29T11:42:05;4.40;;;2.80;;
60700;SDS011;46541;49.894;10.886;2023-04-29T11:44:32;4.00;;;2.47;;
60700;SDS011;46541;49.894;10.886;2023-04-29T11:47:06;4.00;;;2.58;;
60700;SDS011;46541;49.894;10.886;2023-04-29T11:49:33;3.53;;;2.40;;
60700;SDS011;46541;49.894;10.886;2023-04-29T11:52:00;2.95;;;2.10;;
60700;SDS011;46541;49.894;10.886;2023-04-29T11:54:28;3.30;;;2.53;;
60700;SDS011;46541;49.894;10.886;2023-04-29T11:56:56;4.50;;;2.53;;
60700;SDS011;46541;49.894;10.886;2023-04-29T11:59:23;6.38;;;3.45;;
60700;SDS011;46541;49.894;10.886;2023-04-29T12:01:51;6.60;;;3.97;;
60700;SDS011;46541;49.894;10.886;2023-04-29T12:04:18;4.63;;;2.78;;
60700;SDS011;46541;49.894;10.886;2023-04-29T12:06:45;3.33;;;2.60;;
60700;SDS011;46541;49.894;10.886;2023-04-29T12:09:12;2.72;;;2.20;;
60700;SDS011;46541;49.894;10.886;2023-04-29T12:11:40;5.47;;;2.83;;
60700;SDS011;46541;49.894;10.886;2023-04-29T12:14:08;4.25;;;2.67;;
60700;SDS011;46541;49.894;10.886;2023-04-29T12:16:35;3.05;;;2.60;;
60700;SDS011;46541;49.894;10.886;2023-04-29T12:19:02;4.82;;;2.58;;
60700;SDS011;46541;49.894;10.886;2023-04-29T12:21:29;5.05;;;3.65;;
60700;SDS011;46541;49.894;10.886;2023-04-29T12:24:01;4.00;;;3.42;;
60700;SDS011;46541;49.894;10.886;2023-04-29T12:26:29;4.82;;;3.53;;
60700;SDS011;46541;49.894;10.886;2023-04-29T12:28:57;3.97;;;2.80;;
60700;SDS011;46541;49.894;10.886;2023-04-29T12:31:31;4.95;;;2.97;;
60700;SDS011;46541;49.894;10.886;2023-04-29T12:33:59;4.77;;;2.77;;
60700;SDS011;46541;49.894;10.886;2023-04-29T12:36:29;5.43;;;2.97;;
60700;SDS011;46541;49.894;10.886;2023-04-29T12:38:56;3.60;;;2.88;;
60700;SDS011;46541;49.894;10.886;2023-04-29T12:41:38;5.93;;;3.15;;
60700;SDS011;46541;49.894;10.886;2023-04-29T12:44:06;61.35;;;6.60;;
60700;SDS011;46541;49.894;10.886;2023-04-29T12:46:34;5.65;;;2.90;;
60700;SDS011;46541;49.894;10.886;2023-04-29T12:49:03;4.40;;;2.97;;
60700;SDS011;46541;49.894;10.886;2023-04-29T12:51:31;5.32;;;3.15;;
60700;SDS011;46541;49.894;10.886;2023-04-29T12:54:02;4.65;;;3.42;;
60700;SDS011;46541;49.894;10.886;2023-04-29T12:56:29;4.40;;;3.17;;
60700;SDS011;46541;49.894;10.886;2023-04-29T12:59:03;8.77;;;3.80;;
60700;SDS011;46541;49.894;10.886;2023-04-29T13:01:32;48.75;;;6.28;;
60700;SDS011;46541;49.894;10.886;2023-04-29T13:03:59;4.70;;;3.92;;
60700;SDS011;46541;49.894;10.886;2023-04-29T13:06:26;6.82;;;4.63;;
60700;SDS011;46541;49.894;10.886;2023-04-29T13:08:53;6.15;;;4.00;;
60700;SDS011;46541;49.894;10.886;2023-04-29T13:11:20;5.47;;;4.05;;
60700;SDS011;46541;49.894;10.886;2023-04-29T13:13:47;5.07;;;3.65;;
60700;SDS011;46541;49.894;10.886;2023-04-29T13:16:13;5.70;;;3.20;;
60700;SDS011;46541;49.894;10.886;2023-04-29T13:18:40;5.28;;;3.63;;
60700;SDS011;46541;49.894;10.886;2023-04-29T13:21:26;9.85;;;3.50;;
60700;SDS011;46541;49.894;10.886;2023-04-29T13:23:53;4.80;;;3.22;;
60700;SDS011;46541;49.894;10.886;2023-04-29T13:26:20;5.80;;;3.83;;
60700;SDS011;46541;49.894;10.886;2023-04-29T13:28:49;3.88;;;2.75;;
60700;SDS011;46541;49.894;10.886;2023-04-29T13:31:16;4.65;;;3.00;;
60700;SDS011;46541;49.894;10.886;2023-04-29T13:33:43;5.45;;;3.13;;
60700;SDS011;46541;49.894;10.886;2023-04-29T13:36:09;5.47;;;3.22;;
60700;SDS011;46541;49.894;10.886;2023-04-29T13:38:36;4.85;;;3.13;;
60700;SDS011;46541;49.894;10.886;2023-04-29T13:41:03;4.72;;;3.50;;
60700;SDS011;46541;49.894;10.886;2023-04-29T13:43:36;8.05;;;3.67;;
60700;SDS011;46541;49.894;10.886;2023-04-29T13:46:05;3.90;;;3.38;;
60700;SDS011;46541;49.894;10.886;2023-04-29T13:48:33;4.05;;;2.97;;
60700;SDS011;46541;49.894;10.886;2023-04-29T13:51:20;5.05;;;3.40;;
60700;SDS011;46541;49.894;10.886;2023-04-29T13:53:49;4.97;;;3.28;;
60700;SDS011;46541;49.894;10.886;2023-04-29T13:56:19;4.85;;;2.72;;
60700;SDS011;46541;49.894;10.886;2023-04-29T13:58:49;5.30;;;3.15;;
60700;SDS011;46541;49.894;10.886;2023-04-29T14:01:18;3.38;;;2.78;;
60700;SDS011;46541;49.894;10.886;2023-04-29T14:03:48;4.43;;;2.65;;
60700;SDS011;46541;49.894;10.886;2023-04-29T14:06:15;11.05;;;3.50;;
60700;SDS011;46541;49.894;10.886;2023-04-29T14:08:41;3.33;;;2.22;;
60700;SDS011;46541;49.894;10.886;2023-04-29T14:11:09;2.97;;;2.20;;
60700;SDS011;46541;49.894;10.886;2023-04-29T14:13:36;3.58;;;2.08;;
60700;SDS011;46541;49.894;10.886;2023-04-29T14:16:03;2.40;;;2.08;;
60700;SDS011;46541;49.894;10.886;2023-04-29T14:18:31;2.17;;;1.75;;
60700;SDS011;46541;49.894;10.886;2023-04-29T14:20:58;1.88;;;1.67;;
60700;SDS011;46541;49.894;10.886;2023-04-29T14:23:25;2.00;;;1.60;;
60700;SDS011;46541;49.894;10.886;2023-04-29T14:25:52;2.42;;;1.70;;
60700;SDS011;46541;49.894;10.886;2023-04-29T14:28:31;2.63;;;1.42;;
60700;SDS011;46541;49.894;10.886;2023-04-29T14:30:58;3.20;;;1.67;;
60700;SDS011;46541;49.894;10.886;2023-04-29T14:33:25;2.78;;;2.03;;
60700;SDS011;46541;49.894;10.886;2023-04-29T14:35:52;2.33;;;1.63;;
60700;SDS011;46541;49.894;10.886;2023-04-29T14:38:19;4.85;;;1.48;;
60700;SDS011;46541;49.894;10.886;2023-04-29T14:40:45;2.15;;;1.50;;
60700;SDS011;46541;49.894;10.886;2023-04-29T14:43:12;3.55;;;1.90;;
60700;SDS011;46541;49.894;10.886;2023-04-29T14:45:39;3.90;;;2.13;;
60700;SDS011;46541;49.894;10.886;2023-04-29T14:48:06;48.35;;;5.00;;
60700;SDS011;46541;49.894;10.886;2023-04-29T14:50:34;8.95;;;2.47;;
60700;SDS011;46541;49.894;10.886;2023-04-29T14:53:02;1.92;;;1.27;;
60700;SDS011;46541;49.894;10.886;2023-04-29T14:55:29;2.28;;;1.40;;
60700;SDS011;46541;49.894;10.886;2023-04-29T14:57:56;5.68;;;1.60;;
60700;SDS011;46541;49.894;10.886;2023-04-29T15:00:23;6.13;;;1.98;;
60700;SDS011;46541;49.894;10.886;2023-04-29T15:02:50;2.20;;;1.42;;
60700;SDS011;46541;49.894;10.886;2023-04-29T15:05:18;2.10;;;1.55;;
60700;SDS011;46541;49.894;10.886;2023-04-29T15:07:45;4.10;;;1.95;;